createdAt,value
2018-01-15T00:01:18.545Z,2.30
2018-01-15T00:03:45.969Z,2.30
2018-01-15T00:06:13.414Z,2.40
2018-01-15T00:08:40.850Z,2.50
2018-01-15T00:11:08.289Z,2.60
2018-01-15T00:13:35.726Z,2.60
2018-01-15T00:16:03.194Z,2.70
2018-01-15T00:18:31.393Z,2.70
2018-01-15T00:20:58.850Z,2.70
2018-01-15T00:23:27.062Z,2.80
2018-01-15T00:25:54.514Z,2.80
2018-01-15T00:28:21.941Z,2.80
2018-01-15T00:30:50.143Z,2.90
2018-01-15T00:33:17.587Z,2.90
2018-01-15T00:35:45.798Z,2.90
2018-01-15T00:38:13.237Z,2.90
2018-01-15T00:40:41.446Z,2.90
2018-01-15T00:43:08.890Z,2.90
2018-01-15T00:45:36.329Z,3.00
2018-01-15T00:48:04.542Z,3.00
2018-01-15T00:50:31.988Z,2.90
2018-01-15T00:53:00.204Z,3.10
2018-01-15T00:55:27.638Z,3.00
2018-01-15T00:57:55.089Z,3.00
2018-01-15T01:00:23.317Z,3.10
2018-01-15T01:02:50.762Z,3.10
2018-01-15T01:05:18.208Z,3.20
2018-01-15T01:07:45.634Z,3.20
2018-01-15T01:10:13.085Z,3.10
2018-01-15T01:12:40.523Z,3.10
2018-01-15T01:15:07.962Z,3.10
2018-01-15T01:17:35.390Z,3.00
2018-01-15T01:20:02.834Z,2.90
2018-01-15T01:22:30.271Z,2.90
2018-01-15T01:24:57.725Z,2.90
2018-01-15T01:27:25.145Z,2.80
2018-01-15T01:29:53.354Z,2.80
2018-01-15T01:32:20.816Z,2.80
2018-01-15T01:34:48.269Z,2.80
2018-01-15T01:37:15.690Z,2.80
2018-01-15T01:39:43.125Z,2.90
2018-01-15T01:42:10.563Z,2.90
2018-01-15T01:44:38.013Z,2.90
2018-01-15T01:47:05.440Z,2.90
2018-01-15T01:49:32.877Z,3.00
2018-01-15T01:52:00.341Z,2.90
2018-01-15T01:54:27.771Z,3.00
2018-01-15T01:56:55.202Z,3.00
2018-01-15T01:59:22.635Z,3.00
2018-01-15T02:01:50.095Z,3.00
2018-01-15T02:04:17.525Z,3.10
2018-01-15T02:06:44.961Z,3.10
2018-01-15T02:09:13.183Z,3.20
2018-01-15T02:11:40.623Z,3.20
2018-01-15T02:14:08.100Z,3.20
2018-01-15T02:16:35.562Z,3.20
2018-01-15T02:19:03.002Z,3.20
2018-01-15T02:21:30.442Z,3.20
2018-01-15T02:23:57.893Z,3.20
2018-01-15T02:26:25.326Z,3.30
2018-01-15T02:28:52.771Z,3.30
2018-01-15T02:31:20.209Z,3.30
2018-01-15T02:33:48.406Z,3.30
2018-01-15T02:36:15.844Z,3.30
2018-01-15T02:38:44.059Z,3.30
2018-01-15T02:41:11.492Z,3.30
2018-01-15T02:43:39.711Z,3.40
2018-01-15T02:46:07.154Z,3.30
2018-01-15T02:48:34.585Z,3.30
2018-01-15T02:51:02.802Z,3.40
2018-01-15T02:53:30.229Z,3.40
2018-01-15T02:55:58.441Z,3.40
2018-01-15T02:58:25.864Z,3.40
2018-01-15T03:00:53.303Z,3.40
2018-01-15T03:03:20.751Z,3.30
2018-01-15T03:05:48.199Z,3.30
2018-01-15T03:08:15.638Z,3.40
2018-01-15T03:10:43.087Z,3.40
2018-01-15T03:13:11.293Z,3.40
2018-01-15T03:15:38.737Z,3.40
2018-01-15T03:18:06.938Z,3.40
2018-01-15T03:20:34.388Z,3.40
2018-01-15T03:23:01.817Z,3.40
2018-01-15T03:25:29.255Z,3.40
2018-01-15T03:27:56.685Z,3.40
2018-01-15T03:30:24.144Z,3.40
2018-01-15T03:32:51.605Z,3.40
2018-01-15T03:35:19.037Z,3.40
2018-01-15T03:37:47.252Z,3.40
2018-01-15T03:40:14.686Z,3.40
2018-01-15T03:42:42.890Z,3.50
2018-01-15T03:45:10.327Z,3.50
2018-01-15T03:47:38.554Z,3.50
2018-01-15T03:50:05.982Z,3.50
2018-01-15T03:52:33.432Z,3.40
2018-01-15T03:55:01.636Z,3.40
2018-01-15T03:57:29.090Z,3.40
2018-01-15T03:59:56.534Z,3.40
2018-01-15T04:02:24.758Z,3.40
2018-01-15T04:04:52.184Z,3.40
2018-01-15T04:07:19.631Z,3.40
2018-01-15T04:09:47.839Z,3.50
2018-01-15T04:12:15.283Z,3.50
2018-01-15T04:14:43.490Z,3.40
2018-01-15T04:17:10.912Z,3.40
2018-01-15T04:19:39.127Z,3.40
2018-01-15T04:22:06.572Z,3.40
2018-01-15T04:24:34.780Z,3.40
2018-01-15T04:27:02.230Z,3.50
2018-01-15T04:29:29.657Z,3.50
2018-01-15T04:31:57.085Z,3.50
2018-01-15T04:34:24.523Z,3.40
2018-01-15T04:36:51.987Z,3.50
2018-01-15T04:39:19.450Z,3.50
2018-01-15T04:41:46.865Z,3.50
2018-01-15T04:44:14.304Z,3.50
2018-01-15T04:46:41.767Z,3.50
2018-01-15T04:49:09.949Z,3.50
2018-01-15T04:51:37.399Z,3.50
2018-01-15T04:54:04.826Z,3.50
2018-01-15T04:56:32.265Z,3.50
2018-01-15T04:59:00.474Z,3.60
2018-01-15T05:01:27.938Z,3.50
2018-01-15T05:03:55.370Z,3.50
2018-01-15T05:06:22.813Z,3.50
2018-01-15T05:08:50.270Z,3.60
2018-01-15T05:11:17.701Z,3.60
2018-01-15T05:13:45.137Z,3.60
2018-01-15T05:16:12.596Z,3.60
2018-01-15T05:18:40.793Z,3.60
2018-01-15T05:21:08.233Z,3.60
2018-01-15T05:23:36.458Z,3.60
2018-01-15T05:26:03.900Z,3.60
2018-01-15T05:28:31.342Z,3.70
2018-01-15T05:30:59.551Z,3.70
2018-01-15T05:33:26.983Z,3.70
2018-01-15T05:35:55.195Z,3.70
2018-01-15T05:38:22.643Z,3.70
2018-01-15T05:40:50.094Z,3.70
2018-01-15T05:43:17.543Z,3.70
2018-01-15T05:45:44.970Z,3.70
2018-01-15T05:48:12.405Z,3.80
2018-01-15T05:50:39.849Z,3.80
2018-01-15T05:53:07.294Z,3.80
2018-01-15T05:55:35.515Z,3.80
2018-01-15T05:58:02.957Z,3.80
2018-01-15T06:00:30.404Z,3.80
2018-01-15T06:02:58.611Z,3.80
2018-01-15T06:05:26.047Z,3.80
2018-01-15T06:07:54.271Z,3.80
2018-01-15T06:10:21.710Z,3.80
2018-01-15T06:12:49.174Z,3.80
2018-01-15T06:15:16.635Z,3.80
2018-01-15T06:17:44.063Z,3.80
2018-01-15T06:20:12.266Z,3.80
2018-01-15T06:22:39.714Z,3.80
2018-01-15T06:25:07.930Z,3.70
2018-01-15T06:27:35.370Z,3.70
2018-01-15T06:30:02.847Z,3.70
2018-01-15T06:32:30.286Z,3.70
2018-01-15T06:34:57.748Z,3.70
2018-01-15T06:37:25.194Z,3.70
2018-01-15T06:39:53.419Z,3.60
2018-01-15T06:42:20.972Z,3.60
2018-01-15T06:44:49.157Z,3.60
2018-01-15T06:47:16.614Z,3.50
2018-01-15T06:49:44.094Z,3.60
2018-01-15T06:52:12.265Z,3.50
2018-01-15T06:54:39.719Z,3.50
2018-01-15T06:57:07.934Z,3.50
2018-01-15T06:59:35.377Z,3.50
2018-01-15T07:02:02.843Z,3.50
2018-01-15T07:04:30.261Z,3.50
2018-01-15T07:06:58.481Z,3.40
2018-01-15T07:09:25.956Z,3.40
2018-01-15T07:11:53.407Z,3.40
2018-01-15T07:14:20.855Z,3.40
2018-01-15T07:16:48.297Z,3.40
2018-01-15T07:19:15.745Z,3.40
2018-01-15T07:21:43.946Z,3.40
2018-01-15T07:24:11.398Z,3.40
2018-01-15T07:26:39.607Z,3.40
2018-01-15T07:29:07.045Z,3.40
2018-01-15T07:31:34.498Z,3.40
2018-01-15T07:34:02.737Z,3.40
2018-01-15T07:36:30.174Z,3.40
2018-01-15T07:38:57.614Z,3.30
2018-01-15T07:41:25.058Z,3.40
2018-01-15T07:43:53.257Z,3.40
2018-01-15T07:46:20.697Z,3.40
2018-01-15T07:48:48.139Z,3.40
2018-01-15T07:51:15.590Z,3.40
2018-01-15T07:53:43.031Z,3.40
2018-01-15T07:56:10.471Z,3.40
2018-01-15T07:58:38.674Z,3.40
2018-01-15T08:01:06.119Z,3.40
2018-01-15T08:03:33.563Z,3.40
2018-01-15T08:06:01.753Z,3.40
2018-01-15T08:08:29.203Z,3.40
2018-01-15T08:10:57.424Z,3.40
2018-01-15T08:13:24.859Z,3.40
2018-01-15T08:15:52.336Z,3.40
2018-01-15T08:18:19.765Z,3.40
2018-01-15T08:20:47.977Z,3.40
2018-01-15T08:23:15.436Z,3.50
2018-01-15T08:25:42.875Z,3.50
2018-01-15T08:28:11.084Z,3.50
2018-01-15T08:30:38.536Z,3.40
2018-01-15T08:33:06.744Z,3.50
2018-01-15T08:35:34.161Z,3.50
2018-01-15T08:38:02.350Z,3.50
2018-01-15T08:40:29.802Z,3.50
2018-01-15T08:42:58.016Z,3.60
2018-01-15T08:45:25.469Z,3.60
2018-01-15T08:47:52.915Z,3.60
2018-01-15T08:50:20.365Z,3.60
2018-01-15T08:52:48.573Z,3.70
2018-01-15T08:55:16.015Z,3.70
2018-01-15T08:57:44.217Z,3.80
2018-01-15T09:00:11.662Z,3.80
2018-01-15T09:02:39.095Z,3.80
2018-01-15T09:05:06.549Z,3.80
2018-01-15T09:07:33.988Z,3.80
2018-01-15T09:10:01.424Z,3.80
2018-01-15T09:12:28.864Z,3.90
2018-01-15T09:14:57.092Z,4.00
2018-01-15T09:17:24.533Z,4.00
2018-01-15T09:19:51.970Z,4.00
2018-01-15T09:22:20.186Z,4.10
2018-01-15T09:24:47.635Z,4.10
2018-01-15T09:27:15.079Z,4.30
2018-01-15T09:29:43.265Z,4.20
2018-01-15T09:32:10.724Z,4.20
2018-01-15T09:34:38.939Z,4.30
2018-01-15T09:37:06.383Z,4.30
2018-01-15T09:39:33.831Z,4.20
2018-01-15T09:42:01.280Z,4.30
2018-01-15T09:44:29.491Z,4.30
2018-01-15T09:46:56.929Z,4.30
2018-01-15T09:49:25.147Z,4.40
2018-01-15T09:51:52.594Z,4.30
2018-01-15T09:54:20.043Z,4.40
2018-01-15T09:56:47.495Z,4.40
2018-01-15T09:59:15.708Z,4.40
2018-01-15T10:01:43.153Z,4.40
2018-01-15T10:04:10.607Z,4.40
2018-01-15T10:06:38.056Z,4.40
2018-01-15T10:09:06.273Z,4.40
2018-01-15T10:11:33.729Z,4.40
2018-01-15T10:14:01.190Z,4.40
2018-01-15T10:16:28.665Z,4.50
2018-01-15T10:18:56.141Z,4.60
2018-01-15T10:21:23.554Z,4.50
2018-01-15T10:23:51.767Z,4.60
2018-01-15T10:26:19.206Z,4.60
2018-01-15T10:28:46.660Z,4.60
2018-01-15T10:31:14.875Z,4.60
2018-01-15T10:33:42.329Z,4.60
2018-01-15T10:36:09.788Z,4.70
2018-01-15T10:38:37.264Z,4.70
2018-01-15T10:41:05.438Z,4.80
2018-01-15T10:43:32.889Z,4.70
2018-01-15T10:46:00.330Z,4.80
2018-01-15T10:48:28.549Z,4.70
2018-01-15T10:50:55.973Z,4.70
2018-01-15T10:53:24.181Z,4.80
2018-01-15T10:55:51.642Z,4.70
2018-01-15T10:58:19.080Z,4.70
2018-01-15T11:00:51.169Z,4.80
2018-01-15T11:03:18.615Z,4.70
2018-01-15T11:05:46.809Z,4.80
2018-01-15T11:08:14.242Z,4.80
2018-01-15T11:10:42.458Z,4.90
2018-01-15T11:13:09.893Z,4.80
2018-01-15T11:15:38.103Z,4.90
2018-01-15T11:18:05.552Z,4.90
2018-01-15T11:20:33.007Z,4.90
2018-01-15T11:23:00.441Z,5.00
2018-01-15T11:25:27.904Z,4.90
2018-01-15T11:27:55.334Z,4.90
2018-01-15T11:30:22.777Z,4.90
2018-01-15T11:32:50.226Z,4.90
2018-01-15T11:35:17.673Z,4.90
2018-01-15T11:37:45.889Z,5.00
2018-01-15T11:40:13.320Z,5.00
2018-01-15T11:42:40.760Z,5.00
2018-01-15T11:45:08.213Z,5.10
2018-01-15T11:47:35.663Z,5.10
2018-01-15T11:50:03.098Z,5.00
2018-01-15T11:52:30.543Z,5.00
2018-01-15T11:54:57.973Z,5.00
2018-01-15T11:57:26.184Z,5.10
2018-01-15T11:59:53.609Z,5.00
2018-01-15T12:02:21.044Z,5.10
2018-01-15T12:07:22.313Z,5.10
2018-01-15T12:09:50.561Z,5.10
2018-01-15T12:12:17.963Z,5.10
2018-01-15T12:14:45.406Z,5.10
2018-01-15T12:17:12.852Z,5.20
2018-01-15T12:19:40.357Z,5.10
2018-01-15T12:22:07.755Z,5.10
2018-01-15T12:24:35.937Z,5.10
2018-01-15T12:27:03.378Z,5.10
2018-01-15T12:29:30.815Z,5.10
2018-01-15T12:31:58.256Z,5.20
2018-01-15T12:34:25.704Z,5.10
2018-01-15T12:36:53.142Z,5.10
2018-01-15T12:39:21.346Z,5.00
2018-01-15T12:41:48.804Z,5.00
2018-01-15T12:44:16.249Z,5.10
2018-01-15T12:46:44.460Z,5.10
2018-01-15T12:49:11.922Z,5.00
2018-01-15T12:51:40.116Z,5.10
2018-01-15T12:54:07.562Z,5.10
2018-01-15T12:56:35.003Z,5.10
2018-01-15T12:59:02.452Z,5.10
2018-01-15T13:01:30.663Z,5.10
2018-01-15T13:03:58.098Z,5.10
2018-01-15T13:06:38.234Z,5.10
2018-01-15T13:09:06.451Z,5.10
2018-01-15T13:11:33.889Z,5.10
2018-01-15T13:14:02.102Z,5.20
2018-01-15T13:16:29.552Z,5.20
2018-01-15T13:18:56.988Z,5.20
2018-01-15T13:21:25.227Z,5.20
2018-01-15T13:23:52.677Z,5.10
2018-01-15T13:26:20.123Z,5.20
2018-01-15T13:28:47.563Z,5.20
2018-01-15T13:31:15.768Z,5.20
2018-01-15T13:33:43.220Z,5.10
2018-01-15T13:36:10.646Z,5.20
2018-01-15T13:38:38.105Z,5.20
2018-01-15T13:41:05.535Z,5.30
2018-01-15T13:43:32.974Z,5.30
2018-01-15T13:46:00.403Z,5.30
2018-01-15T13:48:28.600Z,5.20
2018-01-15T13:50:56.041Z,5.20
2018-01-15T13:53:23.483Z,5.30
2018-01-15T13:55:50.915Z,5.30
2018-01-15T13:58:18.363Z,5.30
2018-01-15T14:00:45.791Z,5.30
2018-01-15T14:03:13.229Z,5.30
2018-01-15T14:05:40.675Z,5.30
2018-01-15T14:08:08.098Z,5.40
2018-01-15T14:10:35.540Z,5.40
2018-01-15T14:13:02.976Z,5.40
2018-01-15T14:15:31.183Z,5.40
2018-01-15T14:17:59.396Z,5.40
2018-01-15T14:20:26.834Z,5.40
2018-01-15T14:22:55.043Z,5.40
2018-01-15T14:25:22.483Z,5.40
2018-01-15T14:27:50.691Z,5.50
2018-01-15T14:30:18.132Z,5.50
2018-01-15T14:32:45.567Z,5.50
2018-01-15T14:35:13.007Z,5.50
2018-01-15T14:37:40.441Z,5.50
2018-01-15T14:40:07.880Z,5.50
2018-01-15T14:42:35.314Z,5.50
2018-01-15T14:45:02.753Z,5.50
2018-01-15T14:47:30.200Z,5.50
2018-01-15T14:49:57.641Z,5.50
2018-01-15T14:52:25.073Z,5.40
2018-01-15T14:54:53.518Z,5.50
2018-01-15T14:57:20.950Z,5.50
2018-01-15T14:59:48.403Z,5.50
2018-01-15T15:02:15.829Z,5.50
2018-01-15T15:04:43.291Z,5.60
2018-01-15T15:07:10.719Z,5.50
2018-01-15T15:09:38.214Z,5.50
2018-01-15T15:12:05.622Z,5.50
2018-01-15T15:14:33.037Z,5.60
2018-01-15T15:17:00.564Z,5.50
2018-01-15T15:19:27.931Z,5.50
2018-01-15T15:21:56.125Z,5.50
2018-01-15T15:24:23.562Z,5.50
2018-01-15T15:26:51.013Z,5.60
2018-01-15T15:29:18.455Z,5.60
2018-01-15T15:31:46.658Z,5.70
2018-01-15T15:34:14.107Z,5.60
2018-01-15T15:36:42.298Z,5.60
2018-01-15T15:39:09.742Z,5.60
2018-01-15T15:41:37.944Z,5.60
2018-01-15T15:44:05.373Z,5.50
2018-01-15T15:46:33.561Z,5.60
2018-01-15T15:49:02.580Z,5.60
2018-01-15T15:51:30.009Z,5.60
2018-01-15T15:53:58.207Z,5.50
2018-01-15T15:56:25.645Z,5.50
2018-01-15T15:58:53.081Z,5.60
2018-01-15T16:01:21.282Z,5.50
2018-01-15T16:03:48.706Z,5.50
2018-01-15T16:06:16.151Z,5.50
2018-01-15T16:08:43.569Z,5.50
2018-01-15T16:11:11.022Z,5.50
2018-01-15T16:13:38.455Z,5.50
2018-01-15T16:16:05.884Z,5.50
2018-01-15T16:18:33.312Z,5.50
2018-01-15T16:21:00.769Z,5.50
2018-01-15T16:29:28.942Z,5.50
2018-01-15T16:31:57.143Z,5.50
2018-01-15T16:34:24.570Z,5.50
2018-01-15T16:36:52.786Z,5.50
2018-01-15T16:39:20.209Z,5.50
2018-01-15T16:41:48.422Z,5.50
2018-01-15T16:44:15.863Z,5.50
2018-01-15T16:46:43.319Z,5.50
2018-01-15T16:49:11.538Z,5.50
2018-01-15T16:51:38.954Z,5.50
2018-01-15T16:54:07.160Z,5.50
2018-01-15T16:56:34.626Z,5.50
2018-01-15T16:59:02.045Z,5.50
2018-01-15T17:01:29.482Z,5.50
2018-01-15T17:03:56.931Z,5.50
2018-01-15T17:06:24.373Z,5.50
2018-01-15T17:08:51.852Z,5.50
2018-01-15T17:11:20.012Z,5.50
2018-01-15T17:13:47.458Z,5.50
2018-01-15T17:16:15.676Z,5.60
2018-01-15T17:18:43.123Z,5.50
2018-01-15T17:21:10.591Z,5.60
2018-01-15T17:23:38.025Z,5.60
2018-01-15T17:26:06.242Z,5.60
2018-01-15T17:28:33.695Z,5.60
2018-01-15T17:31:01.138Z,5.60
2018-01-15T17:33:28.599Z,5.60
2018-01-15T17:35:56.053Z,5.60
2018-01-15T17:38:24.275Z,5.70
2018-01-15T17:40:51.720Z,5.60
2018-01-15T17:43:19.166Z,5.70
2018-01-15T17:45:46.615Z,5.70
2018-01-15T17:48:14.891Z,5.70
2018-01-15T17:50:43.122Z,5.70
2018-01-15T17:53:10.568Z,5.80
2018-01-15T17:55:38.055Z,5.80
2018-01-15T17:58:05.590Z,5.80
2018-01-15T18:00:33.034Z,5.90
2018-01-15T18:03:01.248Z,5.90
2018-01-15T18:05:28.769Z,5.90
2018-01-15T18:07:56.342Z,5.90
2018-01-15T18:10:24.548Z,5.90
2018-01-15T18:12:51.989Z,5.90
2018-01-15T18:15:19.502Z,6.00
2018-01-15T18:17:47.002Z,6.00
2018-01-15T18:20:15.223Z,6.10
2018-01-15T18:22:42.683Z,6.10
2018-01-15T18:25:10.145Z,6.10
2018-01-15T18:27:37.606Z,6.20
2018-01-15T18:30:05.107Z,6.20
2018-01-15T18:32:32.745Z,6.40
2018-01-15T18:35:00.256Z,6.30
2018-01-15T18:37:27.685Z,6.40
2018-01-15T18:39:55.114Z,6.30
2018-01-15T18:42:22.553Z,6.40
2018-01-15T18:44:50.822Z,6.70
2018-01-15T18:47:19.055Z,6.80
2018-01-15T18:49:46.511Z,6.80
2018-01-15T18:52:13.998Z,6.70
2018-01-15T18:54:41.521Z,6.70
2018-01-15T18:57:09.723Z,6.70
2018-01-15T18:59:37.201Z,6.70
2018-01-15T19:02:04.664Z,6.80
2018-01-15T19:04:32.192Z,6.70
2018-01-15T19:07:00.430Z,6.70
2018-01-15T19:09:27.881Z,6.70
2018-01-15T19:11:55.348Z,6.70
2018-01-15T19:14:23.061Z,6.70
2018-01-15T19:16:50.519Z,6.70
2018-01-15T19:19:18.749Z,6.60
2018-01-15T19:21:46.183Z,6.60
2018-01-15T19:24:13.673Z,6.70
2018-01-15T19:26:41.123Z,6.60
2018-01-15T19:29:08.565Z,6.70
2018-01-15T19:31:36.014Z,6.90
2018-01-15T19:34:04.267Z,6.70
2018-01-15T19:36:44.444Z,6.70
2018-01-15T19:39:23.350Z,6.70
2018-01-15T19:41:51.589Z,6.60
2018-01-15T19:44:24.735Z,6.70
2018-01-15T19:46:58.775Z,6.70
2018-01-15T19:49:32.006Z,6.60
2018-01-15T19:52:05.292Z,6.70
2018-01-15T19:54:38.402Z,6.80
2018-01-15T19:57:11.702Z,6.80
2018-01-15T19:59:44.869Z,6.80
2018-01-15T20:05:15.456Z,6.70
2018-01-15T20:07:48.741Z,6.70
2018-01-15T20:10:22.607Z,6.70
2018-01-15T20:12:50.110Z,6.70
2018-01-15T20:15:17.583Z,6.70
2018-01-15T20:17:45.816Z,6.60
2018-01-15T20:20:13.349Z,6.60
2018-01-15T20:22:40.806Z,6.50
2018-01-15T20:25:08.271Z,6.60
2018-01-15T20:27:35.723Z,6.60
2018-01-15T20:30:03.970Z,6.50
2018-01-15T20:32:31.431Z,6.50
2018-01-15T20:34:58.905Z,6.50
2018-01-15T20:37:26.361Z,6.50
2018-01-15T20:39:53.814Z,6.60
2018-01-15T20:42:21.275Z,6.60
2018-01-15T20:44:48.739Z,6.60
2018-01-15T20:47:16.221Z,6.60
2018-01-15T20:49:43.670Z,6.60
2018-01-15T20:52:11.116Z,6.60
2018-01-15T20:54:38.555Z,6.60
2018-01-15T20:57:06.008Z,6.60
2018-01-15T20:59:33.460Z,6.60
2018-01-15T21:02:01.681Z,6.60
2018-01-15T21:04:29.122Z,6.50
2018-01-15T21:06:56.569Z,6.50
2018-01-15T21:09:24.807Z,6.40
2018-01-15T21:11:52.275Z,6.40
2018-01-15T21:14:19.730Z,6.40
2018-01-15T21:16:47.185Z,6.50
2018-01-15T21:19:14.650Z,6.50
2018-01-15T21:21:42.094Z,6.50
2018-01-15T21:24:09.556Z,6.50
2018-01-15T21:26:37.009Z,6.50
2018-01-15T21:29:04.471Z,6.50
2018-01-15T21:31:31.922Z,6.50
2018-01-15T21:33:59.388Z,6.40
2018-01-15T21:36:26.833Z,6.40
2018-01-15T21:38:55.066Z,6.30
2018-01-15T21:41:22.524Z,6.20
2018-01-15T21:43:49.983Z,6.20
2018-01-15T21:46:17.441Z,6.20
2018-01-15T21:48:44.882Z,6.20
2018-01-15T21:51:12.333Z,6.20
2018-01-15T21:53:39.790Z,6.10
2018-01-15T21:56:07.252Z,6.10
2018-01-15T21:58:35.471Z,6.00
2018-01-15T22:01:02.930Z,6.00
2018-01-15T22:03:30.398Z,6.00
2018-01-15T22:05:58.623Z,6.00
2018-01-15T22:08:27.147Z,6.00
2018-01-15T22:10:54.601Z,5.90
2018-01-15T22:13:22.067Z,5.90
2018-01-15T22:15:49.521Z,5.90
2018-01-15T22:18:17.721Z,6.00
2018-01-15T22:20:45.198Z,6.00
2018-01-15T22:23:12.657Z,6.00
2018-01-15T22:25:40.122Z,6.00
2018-01-15T22:28:07.580Z,6.00
2018-01-15T22:30:35.032Z,6.00
2018-01-15T22:33:02.502Z,6.00
2018-01-15T22:35:29.950Z,5.90
2018-01-15T22:37:57.404Z,5.90
2018-01-15T22:40:24.851Z,5.90
2018-01-15T22:42:53.052Z,5.90
2018-01-15T22:45:20.501Z,5.90
2018-01-15T22:47:47.952Z,5.90
2018-01-15T22:50:16.187Z,5.80
2018-01-15T22:52:43.642Z,5.80
2018-01-15T22:55:11.107Z,5.80
2018-01-15T22:57:38.582Z,5.80
2018-01-15T23:00:06.037Z,5.80
2018-01-15T23:02:33.501Z,5.80
2018-01-15T23:05:00.948Z,5.80
2018-01-15T23:07:28.398Z,5.80
2018-01-15T23:09:55.863Z,5.80
2018-01-15T23:12:23.372Z,5.80
2018-01-15T23:14:51.720Z,5.80
2018-01-15T23:17:19.147Z,5.80
2018-01-15T23:19:47.367Z,5.80
2018-01-15T23:22:14.830Z,5.80
2018-01-15T23:24:42.283Z,5.80
2018-01-15T23:27:09.742Z,5.80
2018-01-15T23:29:37.187Z,5.80
2018-01-15T23:32:04.654Z,5.90
2018-01-15T23:34:32.094Z,5.90
2018-01-15T23:37:00.307Z,6.00
2018-01-15T23:39:27.772Z,6.00
2018-01-15T23:41:55.221Z,5.90
2018-01-15T23:44:22.693Z,6.00
2018-01-15T23:46:50.167Z,5.90
2018-01-15T23:49:17.618Z,5.90
2018-01-15T23:51:45.134Z,5.90
2018-01-15T23:54:24.285Z,6.00
2018-01-15T23:56:52.512Z,6.00
2018-01-15T23:59:19.969Z,6.00
